sensor_id;sensor_type;location;lat;lon;timestamp;P1;durP1;ratioP1;P2;durP2;ratioP2
49340;SDS011;35209;51.050;13.678;2022-07-29T00:01:55;3.42;;;1.10;;
49340;SDS011;35209;51.050;13.678;2022-07-29T00:06:56;5.68;;;1.15;;
49340;SDS011;35209;51.050;13.678;2022-07-29T00:11:59;4.50;;;1.20;;
49340;SDS011;35209;51.050;13.678;2022-07-29T00:17:01;3.78;;;1.40;;
49340;SDS011;35209;51.050;13.678;2022-07-29T00:22:03;3.85;;;1.13;;
49340;SDS011;35209;51.050;13.678;2022-07-29T00:27:05;6.93;;;1.25;;
49340;SDS011;35209;51.050;13.678;2022-07-29T00:32:07;3.65;;;1.42;;
49340;SDS011;35209;51.050;13.678;2022-07-29T00:37:08;2.85;;;1.40;;
49340;SDS011;35209;51.050;13.678;2022-07-29T00:42:10;4.60;;;1.23;;
49340;SDS011;35209;51.050;13.678;2022-07-29T00:47:12;3.53;;;1.50;;
49340;SDS011;35209;51.050;13.678;2022-07-29T00:52:13;2.38;;;1.10;;
49340;SDS011;35209;51.050;13.678;2022-07-29T00:57:17;3.42;;;1.42;;
49340;SDS011;35209;51.050;13.678;2022-07-29T01:02:19;3.28;;;1.30;;
49340;SDS011;35209;51.050;13.678;2022-07-29T01:07:21;2.10;;;1.20;;
49340;SDS011;35209;51.050;13.678;2022-07-29T01:12:23;8.50;;;1.55;;
49340;SDS011;35209;51.050;13.678;2022-07-29T01:23:08;4.40;;;1.52;;
49340;SDS011;35209;51.050;13.678;2022-07-29T01:33:50;2.47;;;1.25;;
49340;SDS011;35209;51.050;13.678;2022-07-29T01:39:02;5.68;;;1.50;;
49340;SDS011;35209;51.050;13.678;2022-07-29T01:44:12;2.50;;;1.38;;
49340;SDS011;35209;51.050;13.678;2022-07-29T01:49:24;2.80;;;1.27;;
49340;SDS011;35209;51.050;13.678;2022-07-29T01:54:30;2.63;;;1.50;;
49340;SDS011;35209;51.050;13.678;2022-07-29T01:59:36;2.97;;;1.42;;
49340;SDS011;35209;51.050;13.678;2022-07-29T02:04:39;7.75;;;1.40;;
49340;SDS011;35209;51.050;13.678;2022-07-29T02:09:44;4.03;;;1.60;;
49340;SDS011;35209;51.050;13.678;2022-07-29T02:14:49;3.17;;;1.60;;
49340;SDS011;35209;51.050;13.678;2022-07-29T02:19:54;4.10;;;2.05;;
49340;SDS011;35209;51.050;13.678;2022-07-29T02:24:58;3.35;;;1.65;;
49340;SDS011;35209;51.050;13.678;2022-07-29T02:30:04;5.78;;;1.70;;
49340;SDS011;35209;51.050;13.678;2022-07-29T02:35:08;3.38;;;1.80;;
49340;SDS011;35209;51.050;13.678;2022-07-29T02:40:11;3.00;;;1.70;;
49340;SDS011;35209;51.050;13.678;2022-07-29T02:45:16;2.92;;;1.80;;
49340;SDS011;35209;51.050;13.678;2022-07-29T02:50:26;2.38;;;1.88;;
49340;SDS011;35209;51.050;13.678;2022-07-29T02:55:37;3.55;;;2.08;;
49340;SDS011;35209;51.050;13.678;2022-07-29T03:00:43;3.70;;;2.33;;
49340;SDS011;35209;51.050;13.678;2022-07-29T03:05:48;5.75;;;2.17;;
49340;SDS011;35209;51.050;13.678;2022-07-29T03:10:50;4.07;;;2.58;;
49340;SDS011;35209;51.050;13.678;2022-07-29T03:15:53;3.42;;;2.95;;
49340;SDS011;35209;51.050;13.678;2022-07-29T03:20:55;10.73;;;4.28;;
49340;SDS011;35209;51.050;13.678;2022-07-29T03:25:57;5.32;;;4.68;;
49340;SDS011;35209;51.050;13.678;2022-07-29T03:30:58;5.32;;;4.07;;
49340;SDS011;35209;51.050;13.678;2022-07-29T03:36:00;7.95;;;5.03;;
49340;SDS011;35209;51.050;13.678;2022-07-29T03:41:05;4.90;;;3.90;;
49340;SDS011;35209;51.050;13.678;2022-07-29T03:46:10;4.15;;;3.70;;
49340;SDS011;35209;51.050;13.678;2022-07-29T03:51:14;7.53;;;4.18;;
49340;SDS011;35209;51.050;13.678;2022-07-29T03:56:16;4.60;;;3.50;;
49340;SDS011;35209;51.050;13.678;2022-07-29T04:01:21;6.45;;;3.17;;
49340;SDS011;35209;51.050;13.678;2022-07-29T04:06:23;4.85;;;3.55;;
49340;SDS011;35209;51.050;13.678;2022-07-29T04:11:26;3.95;;;3.42;;
49340;SDS011;35209;51.050;13.678;2022-07-29T04:16:28;6.43;;;4.28;;
49340;SDS011;35209;51.050;13.678;2022-07-29T04:21:30;5.90;;;3.88;;
49340;SDS011;35209;51.050;13.678;2022-07-29T04:26:32;5.78;;;3.72;;
49340;SDS011;35209;51.050;13.678;2022-07-29T04:31:34;5.40;;;4.00;;
49340;SDS011;35209;51.050;13.678;2022-07-29T04:36:36;8.13;;;4.07;;
49340;SDS011;35209;51.050;13.678;2022-07-29T04:41:38;7.22;;;4.53;;
49340;SDS011;35209;51.050;13.678;2022-07-29T04:46:39;9.25;;;6.15;;
49340;SDS011;35209;51.050;13.678;2022-07-29T04:51:41;11.25;;;8.30;;
49340;SDS011;35209;51.050;13.678;2022-07-29T04:56:43;16.33;;;10.85;;
49340;SDS011;35209;51.050;13.678;2022-07-29T05:01:44;16.45;;;11.85;;
49340;SDS011;35209;51.050;13.678;2022-07-29T05:06:46;20.27;;;13.77;;
49340;SDS011;35209;51.050;13.678;2022-07-29T05:11:48;15.05;;;12.30;;
49340;SDS011;35209;51.050;13.678;2022-07-29T05:16:49;17.73;;;15.98;;
49340;SDS011;35209;51.050;13.678;2022-07-29T05:21:52;15.63;;;14.18;;
49340;SDS011;35209;51.050;13.678;2022-07-29T05:26:53;19.23;;;16.02;;
49340;SDS011;35209;51.050;13.678;2022-07-29T05:31:55;17.63;;;14.90;;
49340;SDS011;35209;51.050;13.678;2022-07-29T05:36:57;31.90;;;21.33;;
49340;SDS011;35209;51.050;13.678;2022-07-29T05:41:59;20.45;;;17.75;;
49340;SDS011;35209;51.050;13.678;2022-07-29T05:47:00;26.85;;;24.10;;
49340;SDS011;35209;51.050;13.678;2022-07-29T05:52:02;34.88;;;24.83;;
49340;SDS011;35209;51.050;13.678;2022-07-29T05:57:04;64.45;;;26.83;;
49340;SDS011;35209;51.050;13.678;2022-07-29T06:02:06;36.58;;;25.27;;
49340;SDS011;35209;51.050;13.678;2022-07-29T06:07:08;41.17;;;25.98;;
49340;SDS011;35209;51.050;13.678;2022-07-29T06:12:09;42.05;;;27.48;;
49340;SDS011;35209;51.050;13.678;2022-07-29T06:17:11;58.60;;;35.10;;
49340;SDS011;35209;51.050;13.678;2022-07-29T06:22:14;60.60;;;36.30;;
49340;SDS011;35209;51.050;13.678;2022-07-29T06:27:17;89.72;;;47.58;;
49340;SDS011;35209;51.050;13.678;2022-07-29T06:32:18;80.05;;;44.90;;
49340;SDS011;35209;51.050;13.678;2022-07-29T06:37:23;75.90;;;44.83;;
49340;SDS011;35209;51.050;13.678;2022-07-29T06:42:26;72.90;;;44.13;;
49340;SDS011;35209;51.050;13.678;2022-07-29T06:47:27;103.68;;;56.95;;
49340;SDS011;35209;51.050;13.678;2022-07-29T06:52:29;102.85;;;54.88;;
49340;SDS011;35209;51.050;13.678;2022-07-29T06:57:31;92.65;;;56.33;;
49340;SDS011;35209;51.050;13.678;2022-07-29T07:02:33;90.13;;;52.92;;
49340;SDS011;35209;51.050;13.678;2022-07-29T07:07:34;86.82;;;51.65;;
49340;SDS011;35209;51.050;13.678;2022-07-29T07:12:36;82.65;;;50.90;;
49340;SDS011;35209;51.050;13.678;2022-07-29T07:17:38;80.13;;;46.45;;
49340;SDS011;35209;51.050;13.678;2022-07-29T07:22:39;56.97;;;39.13;;
49340;SDS011;35209;51.050;13.678;2022-07-29T07:27:44;54.42;;;35.58;;
49340;SDS011;35209;51.050;13.678;2022-07-29T07:32:46;56.25;;;35.35;;
49340;SDS011;35209;51.050;13.678;2022-07-29T07:37:48;46.75;;;30.08;;
49340;SDS011;35209;51.050;13.678;2022-07-29T07:42:49;52.25;;;31.85;;
49340;SDS011;35209;51.050;13.678;2022-07-29T07:47:51;42.67;;;29.92;;
49340;SDS011;35209;51.050;13.678;2022-07-29T07:52:53;42.42;;;28.13;;
49340;SDS011;35209;51.050;13.678;2022-07-29T07:57:59;36.53;;;26.67;;
49340;SDS011;35209;51.050;13.678;2022-07-29T08:03:00;30.58;;;23.20;;
49340;SDS011;35209;51.050;13.678;2022-07-29T08:08:02;26.10;;;22.48;;
49340;SDS011;35209;51.050;13.678;2022-07-29T08:13:08;38.40;;;25.50;;
49340;SDS011;35209;51.050;13.678;2022-07-29T08:18:12;27.38;;;24.55;;
49340;SDS011;35209;51.050;13.678;2022-07-29T08:23:14;29.40;;;24.60;;
49340;SDS011;35209;51.050;13.678;2022-07-29T08:28:16;28.45;;;21.90;;
49340;SDS011;35209;51.050;13.678;2022-07-29T08:33:18;22.50;;;19.65;;
49340;SDS011;35209;51.050;13.678;2022-07-29T08:38:20;26.27;;;17.42;;
49340;SDS011;35209;51.050;13.678;2022-07-29T08:43:22;16.40;;;14.15;;
49340;SDS011;35209;51.050;13.678;2022-07-29T08:48:24;21.15;;;15.15;;
49340;SDS011;35209;51.050;13.678;2022-07-29T08:53:26;15.30;;;13.65;;
49340;SDS011;35209;51.050;13.678;2022-07-29T08:58:31;28.17;;;14.43;;
49340;SDS011;35209;51.050;13.678;2022-07-29T09:03:38;21.75;;;13.77;;
49340;SDS011;35209;51.050;13.678;2022-07-29T09:08:42;14.77;;;11.95;;
49340;SDS011;35209;51.050;13.678;2022-07-29T09:13:44;16.60;;;11.43;;
49340;SDS011;35209;51.050;13.678;2022-07-29T09:18:45;16.20;;;11.57;;
49340;SDS011;35209;51.050;13.678;2022-07-29T09:24:00;13.60;;;9.48;;
49340;SDS011;35209;51.050;13.678;2022-07-29T09:29:13;11.13;;;9.98;;
49340;SDS011;35209;51.050;13.678;2022-07-29T09:34:25;11.13;;;8.65;;
49340;SDS011;35209;51.050;13.678;2022-07-29T09:39:36;11.05;;;8.57;;
49340;SDS011;35209;51.050;13.678;2022-07-29T09:44:47;9.27;;;8.35;;
49340;SDS011;35209;51.050;13.678;2022-07-29T09:49:54;9.25;;;8.38;;
49340;SDS011;35209;51.050;13.678;2022-07-29T09:55:05;12.98;;;11.77;;
49340;SDS011;35209;51.050;13.678;2022-07-29T10:05:22;15.23;;;13.13;;
49340;SDS011;35209;51.050;13.678;2022-07-29T10:10:30;13.70;;;12.30;;
49340;SDS011;35209;51.050;13.678;2022-07-29T10:15:34;15.48;;;13.60;;
49340;SDS011;35209;51.050;13.678;2022-07-29T10:20:42;14.65;;;13.13;;
49340;SDS011;35209;51.050;13.678;2022-07-29T10:25:45;12.18;;;11.00;;
49340;SDS011;35209;51.050;13.678;2022-07-29T10:30:47;12.20;;;9.25;;
49340;SDS011;35209;51.050;13.678;2022-07-29T10:35:54;10.13;;;8.67;;
49340;SDS011;35209;51.050;13.678;2022-07-29T10:41:11;9.20;;;8.30;;
49340;SDS011;35209;51.050;13.678;2022-07-29T10:46:55;11.65;;;8.30;;
49340;SDS011;35209;51.050;13.678;2022-07-29T11:24:14;2.92;;;1.30;;
49340;SDS011;35209;51.050;13.678;2022-07-29T11:29:29;3.13;;;1.40;;
49340;SDS011;35209;51.050;13.678;2022-07-29T11:34:40;3.75;;;1.10;;
49340;SDS011;35209;51.050;13.678;2022-07-29T11:50:35;1.75;;;0.93;;
49340;SDS011;35209;51.050;13.678;2022-07-29T11:55:44;3.85;;;1.38;;
49340;SDS011;35209;51.050;13.678;2022-07-29T12:01:06;1.60;;;1.20;;
49340;SDS011;35209;51.050;13.678;2022-07-29T12:06:12;1.48;;;1.10;;
49340;SDS011;35209;51.050;13.678;2022-07-29T12:11:16;4.75;;;1.15;;
49340;SDS011;35209;51.050;13.678;2022-07-29T12:16:22;1.30;;;1.10;;
49340;SDS011;35209;51.050;13.678;2022-07-29T12:21:43;1.83;;;1.10;;
49340;SDS011;35209;51.050;13.678;2022-07-29T12:26:57;1.70;;;1.00;;
49340;SDS011;35209;51.050;13.678;2022-07-29T12:32:00;2.70;;;1.13;;
49340;SDS011;35209;51.050;13.678;2022-07-29T12:37:02;2.00;;;1.10;;
49340;SDS011;35209;51.050;13.678;2022-07-29T12:42:14;2.05;;;1.38;;
49340;SDS011;35209;51.050;13.678;2022-07-29T12:47:19;2.33;;;1.60;;
49340;SDS011;35209;51.050;13.678;2022-07-29T12:57:30;5.13;;;1.50;;
49340;SDS011;35209;51.050;13.678;2022-07-29T13:02:33;3.17;;;1.45;;
49340;SDS011;35209;51.050;13.678;2022-07-29T13:07:37;2.90;;;1.30;;
49340;SDS011;35209;51.050;13.678;2022-07-29T13:13:01;4.40;;;1.38;;
49340;SDS011;35209;51.050;13.678;2022-07-29T13:23:32;5.85;;;1.65;;
49340;SDS011;35209;51.050;13.678;2022-07-29T13:28:38;3.50;;;1.23;;
49340;SDS011;35209;51.050;13.678;2022-07-29T13:33:44;1.85;;;1.30;;
49340;SDS011;35209;51.050;13.678;2022-07-29T13:38:46;2.70;;;1.10;;
49340;SDS011;35209;51.050;13.678;2022-07-29T13:43:47;1.65;;;1.17;;
49340;SDS011;35209;51.050;13.678;2022-07-29T13:48:50;2.88;;;1.35;;
49340;SDS011;35209;51.050;13.678;2022-07-29T13:53:52;1.85;;;1.20;;
49340;SDS011;35209;51.050;13.678;2022-07-29T13:58:53;2.95;;;1.42;;
49340;SDS011;35209;51.050;13.678;2022-07-29T14:03:55;2.83;;;1.23;;
49340;SDS011;35209;51.050;13.678;2022-07-29T14:08:57;2.97;;;1.20;;
49340;SDS011;35209;51.050;13.678;2022-07-29T14:13:59;4.55;;;1.40;;
49340;SDS011;35209;51.050;13.678;2022-07-29T14:19:01;3.40;;;1.20;;
49340;SDS011;35209;51.050;13.678;2022-07-29T14:24:03;3.33;;;1.20;;
49340;SDS011;35209;51.050;13.678;2022-07-29T14:34:19;2.70;;;1.20;;
49340;SDS011;35209;51.050;13.678;2022-07-29T14:39:21;1.80;;;1.52;;
49340;SDS011;35209;51.050;13.678;2022-07-29T14:44:32;2.60;;;1.13;;
49340;SDS011;35209;51.050;13.678;2022-07-29T14:49:34;4.18;;;1.13;;
49340;SDS011;35209;51.050;13.678;2022-07-29T14:54:36;2.25;;;1.38;;
49340;SDS011;35209;51.050;13.678;2022-07-29T14:59:38;7.13;;;1.30;;
49340;SDS011;35209;51.050;13.678;2022-07-29T15:04:39;2.75;;;1.45;;
49340;SDS011;35209;51.050;13.678;2022-07-29T15:09:41;1.45;;;1.30;;
49340;SDS011;35209;51.050;13.678;2022-07-29T15:14:50;3.47;;;1.30;;
49340;SDS011;35209;51.050;13.678;2022-07-29T15:19:52;2.47;;;1.33;;
49340;SDS011;35209;51.050;13.678;2022-07-29T15:24:53;2.97;;;1.20;;
49340;SDS011;35209;51.050;13.678;2022-07-29T15:29:55;1.92;;;1.20;;
49340;SDS011;35209;51.050;13.678;2022-07-29T15:34:57;1.85;;;1.50;;
49340;SDS011;35209;51.050;13.678;2022-07-29T15:39:58;2.30;;;1.40;;
49340;SDS011;35209;51.050;13.678;2022-07-29T15:45:00;2.55;;;1.30;;
49340;SDS011;35209;51.050;13.678;2022-07-29T15:50:05;4.43;;;1.37;;
49340;SDS011;35209;51.050;13.678;2022-07-29T15:55:13;3.60;;;1.50;;
49340;SDS011;35209;51.050;13.678;2022-07-29T16:00:15;3.47;;;1.60;;
49340;SDS011;35209;51.050;13.678;2022-07-29T16:05:18;3.17;;;1.75;;
49340;SDS011;35209;51.050;13.678;2022-07-29T16:10:20;3.08;;;1.50;;
49340;SDS011;35209;51.050;13.678;2022-07-29T16:15:21;4.40;;;2.00;;
49340;SDS011;35209;51.050;13.678;2022-07-29T16:20:23;6.13;;;5.32;;
49340;SDS011;35209;51.050;13.678;2022-07-29T16:25:26;8.07;;;7.15;;
49340;SDS011;35209;51.050;13.678;2022-07-29T16:30:48;7.85;;;7.18;;
49340;SDS011;35209;51.050;13.678;2022-07-29T16:35:51;10.10;;;6.78;;
49340;SDS011;35209;51.050;13.678;2022-07-29T16:40:53;8.57;;;7.10;;
49340;SDS011;35209;51.050;13.678;2022-07-29T16:45:55;8.55;;;7.75;;
49340;SDS011;35209;51.050;13.678;2022-07-29T16:50:56;8.60;;;7.80;;
49340;SDS011;35209;51.050;13.678;2022-07-29T16:55:58;7.35;;;6.75;;
49340;SDS011;35209;51.050;13.678;2022-07-29T17:01:00;9.77;;;7.43;;
49340;SDS011;35209;51.050;13.678;2022-07-29T17:06:01;7.82;;;7.03;;
49340;SDS011;35209;51.050;13.678;2022-07-29T17:11:03;6.95;;;6.28;;
49340;SDS011;35209;51.050;13.678;2022-07-29T17:16:05;6.57;;;5.65;;
49340;SDS011;35209;51.050;13.678;2022-07-29T17:21:06;5.30;;;4.88;;
49340;SDS011;35209;51.050;13.678;2022-07-29T17:26:08;3.90;;;3.50;;
49340;SDS011;35209;51.050;13.678;2022-07-29T17:31:10;3.83;;;3.25;;
49340;SDS011;35209;51.050;13.678;2022-07-29T17:36:12;4.88;;;3.10;;
49340;SDS011;35209;51.050;13.678;2022-07-29T17:41:25;2.83;;;2.50;;
49340;SDS011;35209;51.050;13.678;2022-07-29T17:46:27;3.78;;;2.58;;
49340;SDS011;35209;51.050;13.678;2022-07-29T17:51:29;2.40;;;2.17;;
49340;SDS011;35209;51.050;13.678;2022-07-29T17:56:31;4.85;;;1.88;;
49340;SDS011;35209;51.050;13.678;2022-07-29T18:01:33;2.97;;;2.17;;
49340;SDS011;35209;51.050;13.678;2022-07-29T18:06:35;3.00;;;2.00;;
49340;SDS011;35209;51.050;13.678;2022-07-29T18:11:37;2.20;;;1.50;;
49340;SDS011;35209;51.050;13.678;2022-07-29T18:16:39;3.83;;;2.35;;
49340;SDS011;35209;51.050;13.678;2022-07-29T18:21:41;4.15;;;2.60;;
49340;SDS011;35209;51.050;13.678;2022-07-29T18:26:55;8.50;;;2.65;;
49340;SDS011;35209;51.050;13.678;2022-07-29T18:31:57;5.90;;;2.70;;
49340;SDS011;35209;51.050;13.678;2022-07-29T18:37:00;7.70;;;2.42;;
49340;SDS011;35209;51.050;13.678;2022-07-29T18:42:02;3.13;;;2.20;;
49340;SDS011;35209;51.050;13.678;2022-07-29T18:47:04;7.00;;;2.40;;
49340;SDS011;35209;51.050;13.678;2022-07-29T18:52:06;7.03;;;2.72;;
49340;SDS011;35209;51.050;13.678;2022-07-29T18:57:08;5.00;;;2.55;;
49340;SDS011;35209;51.050;13.678;2022-07-29T19:02:30;4.38;;;2.60;;
49340;SDS011;35209;51.050;13.678;2022-07-29T19:07:32;10.55;;;3.03;;
49340;SDS011;35209;51.050;13.678;2022-07-29T19:12:33;4.75;;;3.28;;
49340;SDS011;35209;51.050;13.678;2022-07-29T19:17:35;5.13;;;2.22;;
49340;SDS011;35209;51.050;13.678;2022-07-29T19:22:37;6.05;;;3.25;;
49340;SDS011;35209;51.050;13.678;2022-07-29T19:27:39;4.40;;;2.00;;
49340;SDS011;35209;51.050;13.678;2022-07-29T19:32:41;6.00;;;3.08;;
49340;SDS011;35209;51.050;13.678;2022-07-29T19:37:43;4.00;;;3.17;;
49340;SDS011;35209;51.050;13.678;2022-07-29T19:42:44;4.20;;;3.30;;
49340;SDS011;35209;51.050;13.678;2022-07-29T19:47:48;3.75;;;2.75;;
49340;SDS011;35209;51.050;13.678;2022-07-29T19:52:51;4.68;;;2.38;;
49340;SDS011;35209;51.050;13.678;2022-07-29T19:57:53;9.23;;;3.45;;
49340;SDS011;35209;51.050;13.678;2022-07-29T20:02:55;2.90;;;2.60;;
49340;SDS011;35209;51.050;13.678;2022-07-29T20:07:57;5.50;;;1.85;;
49340;SDS011;35209;51.050;13.678;2022-07-29T20:12:59;3.47;;;2.00;;
49340;SDS011;35209;51.050;13.678;2022-07-29T20:18:01;5.28;;;2.22;;
49340;SDS011;35209;51.050;13.678;2022-07-29T20:23:02;2.67;;;2.20;;
49340;SDS011;35209;51.050;13.678;2022-07-29T20:28:04;2.45;;;1.98;;
49340;SDS011;35209;51.050;13.678;2022-07-29T20:33:06;4.30;;;2.15;;
49340;SDS011;35209;51.050;13.678;2022-07-29T20:38:08;2.90;;;2.30;;
49340;SDS011;35209;51.050;13.678;2022-07-29T20:43:10;5.78;;;2.38;;
49340;SDS011;35209;51.050;13.678;2022-07-29T20:48:11;2.90;;;2.00;;
49340;SDS011;35209;51.050;13.678;2022-07-29T20:53:14;7.45;;;2.45;;
49340;SDS011;35209;51.050;13.678;2022-07-29T20:58:16;3.97;;;2.20;;
49340;SDS011;35209;51.050;13.678;2022-07-29T21:03:19;6.68;;;2.10;;
49340;SDS011;35209;51.050;13.678;2022-07-29T21:08:21;3.92;;;1.70;;
49340;SDS011;35209;51.050;13.678;2022-07-29T21:13:23;3.60;;;1.90;;
49340;SDS011;35209;51.050;13.678;2022-07-29T21:18:26;5.07;;;1.98;;
49340;SDS011;35209;51.050;13.678;2022-07-29T21:23:30;5.43;;;2.03;;
49340;SDS011;35209;51.050;13.678;2022-07-29T21:28:32;3.85;;;2.20;;
49340;SDS011;35209;51.050;13.678;2022-07-29T21:33:39;3.45;;;2.00;;
49340;SDS011;35209;51.050;13.678;2022-07-29T21:38:42;3.60;;;2.20;;
49340;SDS011;35209;51.050;13.678;2022-07-29T21:43:43;4.18;;;2.67;;
49340;SDS011;35209;51.050;13.678;2022-07-29T21:48:46;6.07;;;2.13;;
49340;SDS011;35209;51.050;13.678;2022-07-29T21:53:48;4.65;;;2.40;;
49340;SDS011;35209;51.050;13.678;2022-07-29T21:58:54;3.10;;;2.27;;
49340;SDS011;35209;51.050;13.678;2022-07-29T22:03:56;4.20;;;2.17;;
49340;SDS011;35209;51.050;13.678;2022-07-29T22:08:57;2.92;;;2.13;;
49340;SDS011;35209;51.050;13.678;2022-07-29T22:13:59;3.40;;;2.20;;
49340;SDS011;35209;51.050;13.678;2022-07-29T22:19:01;4.00;;;2.15;;
49340;SDS011;35209;51.050;13.678;2022-07-29T22:24:04;2.40;;;2.20;;
49340;SDS011;35209;51.050;13.678;2022-07-29T22:29:06;3.25;;;2.33;;
49340;SDS011;35209;51.050;13.678;2022-07-29T22:34:08;4.90;;;2.10;;
49340;SDS011;35209;51.050;13.678;2022-07-29T22:39:13;5.68;;;2.45;;
49340;SDS011;35209;51.050;13.678;2022-07-29T22:44:16;4.97;;;2.53;;
49340;SDS011;35209;51.050;13.678;2022-07-29T22:49:18;2.95;;;2.63;;
49340;SDS011;35209;51.050;13.678;2022-07-29T22:54:19;4.95;;;2.47;;
49340;SDS011;35209;51.050;13.678;2022-07-29T22:59:21;3.72;;;2.83;;
49340;SDS011;35209;51.050;13.678;2022-07-29T23:04:23;3.00;;;2.50;;
49340;SDS011;35209;51.050;13.678;2022-07-29T23:09:25;3.30;;;2.72;;
49340;SDS011;35209;51.050;13.678;2022-07-29T23:14:26;4.10;;;3.00;;
49340;SDS011;35209;51.050;13.678;2022-07-29T23:19:28;3.45;;;2.40;;
49340;SDS011;35209;51.050;13.678;2022-07-29T23:24:30;7.80;;;2.72;;
49340;SDS011;35209;51.050;13.678;2022-07-29T23:29:31;5.18;;;3.65;;
49340;SDS011;35209;51.050;13.678;2022-07-29T23:34:37;9.67;;;5.70;;
49340;SDS011;35209;51.050;13.678;2022-07-29T23:39:38;8.48;;;5.78;;
49340;SDS011;35209;51.050;13.678;2022-07-29T23:44:40;7.70;;;4.55;;
49340;SDS011;35209;51.050;13.678;2022-07-29T23:49:42;4.55;;;3.28;;
49340;SDS011;35209;51.050;13.678;2022-07-29T23:54:43;4.28;;;3.17;;
49340;SDS011;35209;51.050;13.678;2022-07-29T23:59:45;5.00;;;2.85;;
